sensor_id;sensor_type;location;lat;lon;timestamp;pressure;altitude;pressure_sealevel;temperature;humidity
65659;BME280;60181;53.258;6.932;2022-11-15T00:00:55;101067.56;;;13.20;67.17
65659;BME280;60181;53.258;6.932;2022-11-15T00:05:23;101066.25;;;13.19;67.18
65659;BME280;60181;53.258;6.932;2022-11-15T00:09:51;101066.25;;;13.19;67.14
65659;BME280;60181;53.258;6.932;2022-11-15T00:14:19;101066.30;;;13.19;67.18
65659;BME280;60181;53.258;6.932;2022-11-15T00:18:47;101064.83;;;13.19;67.15
65659;BME280;60181;53.258;6.932;2022-11-15T00:23:15;101062.84;;;13.19;67.16
65659;BME280;60181;53.258;6.932;2022-11-15T00:27:43;101060.05;;;13.19;67.14
65659;BME280;60181;53.258;6.932;2022-11-15T00:32:11;101057.34;;;13.19;67.15
65659;BME280;60181;53.258;6.932;2022-11-15T00:36:39;101053.97;;;13.19;67.17
65659;BME280;60181;53.258;6.932;2022-11-15T00:41:07;101051.42;;;13.18;67.16
65659;BME280;60181;53.258;6.932;2022-11-15T00:45:35;101048.68;;;13.18;67.12
65659;BME280;60181;53.258;6.932;2022-11-15T00:50:03;101045.72;;;13.18;67.10
65659;BME280;60181;53.258;6.932;2022-11-15T00:54:31;101042.86;;;13.18;67.13
65659;BME280;60181;53.258;6.932;2022-11-15T00:58:59;101039.74;;;13.18;67.10
65659;BME280;60181;53.258;6.932;2022-11-15T01:03:27;101036.50;;;13.18;67.15
65659;BME280;60181;53.258;6.932;2022-11-15T01:07:55;101031.98;;;13.18;67.11
65659;BME280;60181;53.258;6.932;2022-11-15T01:12:23;101026.81;;;13.18;67.13
65659;BME280;60181;53.258;6.932;2022-11-15T01:16:51;101021.13;;;13.17;67.14
65659;BME280;60181;53.258;6.932;2022-11-15T01:21:19;101016.25;;;13.17;67.17
65659;BME280;60181;53.258;6.932;2022-11-15T01:25:47;101011.72;;;13.17;67.13
65659;BME280;60181;53.258;6.932;2022-11-15T01:30:15;101008.03;;;13.17;67.17
65659;BME280;60181;53.258;6.932;2022-11-15T01:34:42;101003.83;;;13.16;67.10
65659;BME280;60181;53.258;6.932;2022-11-15T01:39:10;101000.19;;;13.16;67.13
65659;BME280;60181;53.258;6.932;2022-11-15T01:43:39;100998.38;;;13.15;67.16
65659;BME280;60181;53.258;6.932;2022-11-15T01:48:07;100997.48;;;13.15;67.15
65659;BME280;60181;53.258;6.932;2022-11-15T01:52:35;100993.17;;;13.14;67.20
65659;BME280;60181;53.258;6.932;2022-11-15T01:57:04;100987.34;;;13.14;67.15
65659;BME280;60181;53.258;6.932;2022-11-15T02:01:30;100982.89;;;13.14;67.13
65659;BME280;60181;53.258;6.932;2022-11-15T02:05:58;100979.03;;;13.14;67.20
65659;BME280;60181;53.258;6.932;2022-11-15T02:10:27;100972.83;;;13.14;67.17
65659;BME280;60181;53.258;6.932;2022-11-15T02:14:54;100965.84;;;13.13;67.18
65659;BME280;60181;53.258;6.932;2022-11-15T02:23:57;100951.12;;;13.13;67.13
65659;BME280;60181;53.258;6.932;2022-11-15T02:41:46;100946.66;;;13.13;67.14
65659;BME280;60181;53.258;6.932;2022-11-15T02:46:20;100942.38;;;13.13;67.12
65659;BME280;60181;53.258;6.932;2022-11-15T02:50:38;100936.95;;;13.13;67.15
65659;BME280;60181;53.258;6.932;2022-11-15T02:55:24;100931.86;;;13.13;67.16
65659;BME280;60181;53.258;6.932;2022-11-15T03:13:00;100916.56;;;13.12;67.17
65659;BME280;60181;53.258;6.932;2022-11-15T03:17:28;100916.49;;;13.12;67.15
65659;BME280;60181;53.258;6.932;2022-11-15T03:21:55;100916.16;;;13.12;67.12
65659;BME280;60181;53.258;6.932;2022-11-15T03:26:22;100916.08;;;13.12;67.14
65659;BME280;60181;53.258;6.932;2022-11-15T03:30:50;100915.31;;;13.11;67.17
65659;BME280;60181;53.258;6.932;2022-11-15T03:35:20;100914.98;;;13.11;67.18
65659;BME280;60181;53.258;6.932;2022-11-15T03:39:46;100914.89;;;13.11;67.18
65659;BME280;60181;53.258;6.932;2022-11-15T03:44:20;100914.65;;;13.11;67.16
65659;BME280;60181;53.258;6.932;2022-11-15T03:48:43;100913.17;;;13.11;67.19
65659;BME280;60181;53.258;6.932;2022-11-15T03:53:10;100911.61;;;13.11;67.18
65659;BME280;60181;53.258;6.932;2022-11-15T03:57:38;100910.86;;;13.11;67.12
65659;BME280;60181;53.258;6.932;2022-11-15T04:02:06;100909.31;;;13.11;67.22
65659;BME280;60181;53.258;6.932;2022-11-15T04:06:34;100906.73;;;13.10;67.20
65659;BME280;60181;53.258;6.932;2022-11-15T04:11:02;100904.02;;;13.10;67.23
65659;BME280;60181;53.258;6.932;2022-11-15T04:15:30;100900.64;;;13.10;67.17
65659;BME280;60181;53.258;6.932;2022-11-15T04:19:58;100896.95;;;13.10;67.20
65659;BME280;60181;53.258;6.932;2022-11-15T04:24:26;100891.93;;;13.10;67.19
65659;BME280;60181;53.258;6.932;2022-11-15T04:28:54;100888.89;;;13.10;67.16
65659;BME280;60181;53.258;6.932;2022-11-15T04:33:22;100886.66;;;13.10;67.17
65659;BME280;60181;53.258;6.932;2022-11-15T04:37:50;100885.85;;;13.10;67.19
65659;BME280;60181;53.258;6.932;2022-11-15T04:42:18;100884.20;;;13.10;67.21
65659;BME280;60181;53.258;6.932;2022-11-15T04:46:46;100882.72;;;13.10;67.23
65659;BME280;60181;53.258;6.932;2022-11-15T04:51:14;100882.31;;;13.10;67.24
65659;BME280;60181;53.258;6.932;2022-11-15T04:55:45;100882.37;;;13.09;67.22
65659;BME280;60181;53.258;6.932;2022-11-15T05:00:11;100882.93;;;13.09;67.25
65659;BME280;60181;53.258;6.932;2022-11-15T05:04:38;100882.93;;;13.09;67.28
65659;BME280;60181;53.258;6.932;2022-11-15T05:09:06;100881.95;;;13.09;67.23
65659;BME280;60181;53.258;6.932;2022-11-15T05:13:34;100882.69;;;13.09;67.22
65659;BME280;60181;53.258;6.932;2022-11-15T05:18:02;100881.87;;;13.09;67.24
65659;BME280;60181;53.258;6.932;2022-11-15T05:22:30;100880.88;;;13.09;67.27
65659;BME280;60181;53.258;6.932;2022-11-15T05:26:58;100879.33;;;13.09;67.29
65659;BME280;60181;53.258;6.932;2022-11-15T05:31:26;100879.57;;;13.09;67.27
65659;BME280;60181;53.258;6.932;2022-11-15T05:35:55;100878.42;;;13.09;67.30
65659;BME280;60181;53.258;6.932;2022-11-15T05:40:23;100877.84;;;13.09;67.36
65659;BME280;60181;53.258;6.932;2022-11-15T05:44:50;100877.69;;;13.09;67.29
65659;BME280;60181;53.258;6.932;2022-11-15T05:49:19;100879.00;;;13.09;67.37
65659;BME280;60181;53.258;6.932;2022-11-15T05:53:46;100879.58;;;13.08;67.36
65659;BME280;60181;53.258;6.932;2022-11-15T05:58:14;100878.59;;;13.08;67.34
65659;BME280;60181;53.258;6.932;2022-11-15T06:02:42;100877.49;;;13.08;67.37
65659;BME280;60181;53.258;6.932;2022-11-15T06:07:10;100875.20;;;13.08;67.37
65659;BME280;60181;53.258;6.932;2022-11-15T06:11:38;100874.21;;;13.08;67.38
65659;BME280;60181;53.258;6.932;2022-11-15T06:16:06;100875.20;;;13.08;67.38
65659;BME280;60181;53.258;6.932;2022-11-15T06:20:34;100876.92;;;13.08;67.34
65659;BME280;60181;53.258;6.932;2022-11-15T06:25:02;100878.23;;;13.08;67.40
65659;BME280;60181;53.258;6.932;2022-11-15T06:29:30;100880.70;;;13.08;67.43
65659;BME280;60181;53.258;6.932;2022-11-15T06:33:58;100882.51;;;13.08;67.43
65659;BME280;60181;53.258;6.932;2022-11-15T06:38:26;100885.31;;;13.08;67.43
65659;BME280;60181;53.258;6.932;2022-11-15T06:43:00;100888.51;;;13.08;67.46
65659;BME280;60181;53.258;6.932;2022-11-15T06:47:22;100891.16;;;13.08;67.48
65659;BME280;60181;53.258;6.932;2022-11-15T06:51:50;100893.95;;;13.08;67.49
65659;BME280;60181;53.258;6.932;2022-11-15T06:56:18;100897.53;;;13.07;67.48
65659;BME280;60181;53.258;6.932;2022-11-15T07:00:46;100901.81;;;13.07;67.50
65659;BME280;60181;53.258;6.932;2022-11-15T07:05:14;100905.11;;;13.07;67.49
65659;BME280;60181;53.258;6.932;2022-11-15T07:09:42;100906.91;;;13.07;67.52
65659;BME280;60181;53.258;6.932;2022-11-15T07:14:10;100909.22;;;13.07;67.49
65659;BME280;60181;53.258;6.932;2022-11-15T07:18:39;100911.14;;;13.07;67.48
65659;BME280;60181;53.258;6.932;2022-11-15T07:23:06;100913.28;;;13.07;67.51
65659;BME280;60181;53.258;6.932;2022-11-15T07:27:34;100916.48;;;13.08;67.52
65659;BME280;60181;53.258;6.932;2022-11-15T07:32:02;100919.85;;;13.07;67.55
65659;BME280;60181;53.258;6.932;2022-11-15T07:36:30;100921.50;;;13.07;67.51
65659;BME280;60181;53.258;6.932;2022-11-15T07:40:59;100922.49;;;13.07;67.55
65659;BME280;60181;53.258;6.932;2022-11-15T07:45:26;100925.28;;;13.07;67.55
65659;BME280;60181;53.258;6.932;2022-11-15T07:49:54;100926.26;;;13.07;67.59
65659;BME280;60181;53.258;6.932;2022-11-15T07:54:22;100927.14;;;13.07;67.59
65659;BME280;60181;53.258;6.932;2022-11-15T07:58:50;100927.42;;;13.07;67.58
65659;BME280;60181;53.258;6.932;2022-11-15T08:03:18;100926.59;;;13.07;67.59
65659;BME280;60181;53.258;6.932;2022-11-15T08:07:46;100926.59;;;13.07;67.60
65659;BME280;60181;53.258;6.932;2022-11-15T08:12:14;100926.26;;;13.07;67.63
65659;BME280;60181;53.258;6.932;2022-11-15T08:16:42;100927.25;;;13.08;67.61
65659;BME280;60181;53.258;6.932;2022-11-15T08:21:10;100927.98;;;13.08;67.59
65659;BME280;60181;53.258;6.932;2022-11-15T08:25:38;100928.97;;;13.08;67.65
65659;BME280;60181;53.258;6.932;2022-11-15T08:30:06;100927.98;;;13.08;67.58
65659;BME280;60181;53.258;6.932;2022-11-15T08:34:34;100926.34;;;13.08;67.64
65659;BME280;60181;53.258;6.932;2022-11-15T08:39:02;100924.53;;;13.08;67.62
65659;BME280;60181;53.258;6.932;2022-11-15T08:43:30;100923.66;;;13.08;67.61
65659;BME280;60181;53.258;6.932;2022-11-15T08:48:00;100922.26;;;13.09;67.60
65659;BME280;60181;53.258;6.932;2022-11-15T08:52:26;100920.85;;;13.09;67.60
65659;BME280;60181;53.258;6.932;2022-11-15T08:56:54;100920.06;;;13.10;67.56
65659;BME280;60181;53.258;6.932;2022-11-15T09:01:22;100918.00;;;13.10;67.61
65659;BME280;60181;53.258;6.932;2022-11-15T09:05:56;100915.77;;;13.10;67.57
65659;BME280;60181;53.258;6.932;2022-11-15T09:10:18;100914.15;;;13.11;67.63
65659;BME280;60181;53.258;6.932;2022-11-15T09:14:46;100912.59;;;13.11;67.64
65659;BME280;60181;53.258;6.932;2022-11-15T09:19:14;100909.33;;;13.12;67.69
65659;BME280;60181;53.258;6.932;2022-11-15T09:23:42;100905.88;;;13.12;67.58
65659;BME280;60181;53.258;6.932;2022-11-15T09:28:10;100903.52;;;13.13;67.61
65659;BME280;60181;53.258;6.932;2022-11-15T09:32:38;100902.84;;;13.13;67.58
65659;BME280;60181;53.258;6.932;2022-11-15T09:37:06;100901.56;;;13.14;67.60
65659;BME280;60181;53.258;6.932;2022-11-15T09:50:40;100896.53;;;13.15;67.66
65659;BME280;60181;53.258;6.932;2022-11-15T09:54:58;100894.92;;;13.15;67.60
65659;BME280;60181;53.258;6.932;2022-11-15T09:59:29;100894.42;;;13.15;67.65
65659;BME280;60181;53.258;6.932;2022-11-15T10:03:54;100893.77;;;13.15;67.72
65659;BME280;60181;53.258;6.932;2022-11-15T10:12:50;100888.83;;;13.15;67.75
65659;BME280;60181;53.258;6.932;2022-11-15T10:17:21;100885.54;;;13.15;67.75
65659;BME280;60181;53.258;6.932;2022-11-15T10:26:16;100878.96;;;13.15;67.79
65659;BME280;60181;53.258;6.932;2022-11-15T10:30:46;100876.25;;;13.15;67.86
65659;BME280;60181;53.258;6.932;2022-11-15T10:35:20;100873.18;;;13.15;67.84
65659;BME280;60181;53.258;6.932;2022-11-15T10:39:38;100868.84;;;13.15;67.83
65659;BME280;60181;53.258;6.932;2022-11-15T10:48:34;100857.87;;;13.15;67.85
65659;BME280;60181;53.258;6.932;2022-11-15T10:53:02;100851.90;;;13.15;67.83
65659;BME280;60181;53.258;6.932;2022-11-15T10:57:31;100846.56;;;13.15;67.86
65659;BME280;60181;53.258;6.932;2022-11-15T11:01:58;100840.64;;;13.15;67.85
65659;BME280;60181;53.258;6.932;2022-11-15T11:06:26;100834.63;;;13.16;67.88
65659;BME280;60181;53.258;6.932;2022-11-15T11:10:54;100829.53;;;13.16;67.86
65659;BME280;60181;53.258;6.932;2022-11-15T11:15:22;100826.73;;;13.16;67.87
65659;BME280;60181;53.258;6.932;2022-11-15T11:24:35;100818.84;;;13.16;67.88
65659;BME280;60181;53.258;6.932;2022-11-15T11:28:54;100814.89;;;13.16;67.91
65659;BME280;60181;53.258;6.932;2022-11-15T11:33:21;100811.19;;;13.16;67.93
65659;BME280;60181;53.258;6.932;2022-11-15T11:37:45;100808.34;;;13.16;67.90
65659;BME280;60181;53.258;6.932;2022-11-15T11:55:36;100799.30;;;13.18;67.98
65659;BME280;60181;53.258;6.932;2022-11-15T12:00:04;100796.42;;;13.18;67.98
65659;BME280;60181;53.258;6.932;2022-11-15T12:04:30;100794.14;;;13.18;67.93
65659;BME280;60181;53.258;6.932;2022-11-15T12:09:03;100791.10;;;13.19;67.95
65659;BME280;60181;53.258;6.932;2022-11-15T12:13:26;100788.87;;;13.19;68.00
65659;BME280;60181;53.258;6.932;2022-11-15T12:17:54;100786.77;;;13.19;67.91
65659;BME280;60181;53.258;6.932;2022-11-15T12:22:23;100782.23;;;13.20;67.92
65659;BME280;60181;53.258;6.932;2022-11-15T12:31:22;100774.36;;;13.21;68.07
65659;BME280;60181;53.258;6.932;2022-11-15T12:35:56;100770.90;;;13.21;68.09
65659;BME280;60181;53.258;6.932;2022-11-15T12:40:22;100770.49;;;13.21;68.04
65659;BME280;60181;53.258;6.932;2022-11-15T12:49:11;100767.52;;;13.21;67.96
65659;BME280;60181;53.258;6.932;2022-11-15T12:53:38;100764.92;;;13.22;67.99
65659;BME280;60181;53.258;6.932;2022-11-15T13:02:40;100757.59;;;13.22;68.05
65659;BME280;60181;53.258;6.932;2022-11-15T13:07:03;100753.31;;;13.22;68.08
65659;BME280;60181;53.258;6.932;2022-11-15T13:11:45;100750.59;;;13.22;68.09
65659;BME280;60181;53.258;6.932;2022-11-15T13:16:01;100749.13;;;13.22;68.07
65659;BME280;60181;53.258;6.932;2022-11-15T13:20:29;100747.09;;;13.23;68.16
65659;BME280;60181;53.258;6.932;2022-11-15T13:24:54;100745.61;;;13.23;68.08
65659;BME280;60181;53.258;6.932;2022-11-15T13:29:22;100745.28;;;13.23;68.15
65659;BME280;60181;53.258;6.932;2022-11-15T13:33:50;100745.94;;;13.23;68.12
65659;BME280;60181;53.258;6.932;2022-11-15T13:42:46;100741.41;;;13.23;68.08
65659;BME280;60181;53.258;6.932;2022-11-15T13:47:14;100738.45;;;13.24;68.09
65659;BME280;60181;53.258;6.932;2022-11-15T13:51:46;100735.16;;;13.24;68.11
65659;BME280;60181;53.258;6.932;2022-11-15T13:56:09;100731.20;;;13.24;68.11
65659;BME280;60181;53.258;6.932;2022-11-15T14:00:39;100725.94;;;13.24;68.12
65659;BME280;60181;53.258;6.932;2022-11-15T14:05:18;100721.58;;;13.24;68.17
65659;BME280;60181;53.258;6.932;2022-11-15T14:09:39;100715.83;;;13.24;68.11
65659;BME280;60181;53.258;6.932;2022-11-15T14:14:10;100709.08;;;13.24;68.15
65659;BME280;60181;53.258;6.932;2022-11-15T14:18:40;100702.33;;;13.24;68.17
65659;BME280;60181;53.258;6.932;2022-11-15T14:22:59;100697.56;;;13.24;68.17
65659;BME280;60181;53.258;6.932;2022-11-15T14:27:27;100691.89;;;13.24;68.20
65659;BME280;60181;53.258;6.932;2022-11-15T14:31:54;100685.80;;;13.24;68.17
65659;BME280;60181;53.258;6.932;2022-11-15T14:36:21;100680.54;;;13.24;68.21
65659;BME280;60181;53.258;6.932;2022-11-15T14:40:49;100674.95;;;13.24;68.18
65659;BME280;60181;53.258;6.932;2022-11-15T14:45:18;100670.01;;;13.24;68.28
65659;BME280;60181;53.258;6.932;2022-11-15T14:49:46;100665.48;;;13.23;68.20
65659;BME280;60181;53.258;6.932;2022-11-15T14:54:13;100660.39;;;13.23;68.23
65659;BME280;60181;53.258;6.932;2022-11-15T14:58:41;100656.69;;;13.23;68.24
65659;BME280;60181;53.258;6.932;2022-11-15T15:03:09;100653.00;;;13.23;68.23
65659;BME280;60181;53.258;6.932;2022-11-15T15:07:37;100649.44;;;13.22;68.23
65659;BME280;60181;53.258;6.932;2022-11-15T15:12:12;100646.39;;;13.22;68.30
65659;BME280;60181;53.258;6.932;2022-11-15T15:16:33;100643.84;;;13.22;68.31
65659;BME280;60181;53.258;6.932;2022-11-15T15:21:01;100643.44;;;13.22;68.31
65659;BME280;60181;53.258;6.932;2022-11-15T15:25:30;100642.67;;;13.21;68.31
65659;BME280;60181;53.258;6.932;2022-11-15T15:29:57;100641.85;;;13.21;68.33
65659;BME280;60181;53.258;6.932;2022-11-15T15:34:25;100639.22;;;13.21;68.35
65659;BME280;60181;53.258;6.932;2022-11-15T15:38:53;100637.25;;;13.21;68.34
65659;BME280;60181;53.258;6.932;2022-11-15T15:43:21;100633.72;;;13.21;68.35
65659;BME280;60181;53.258;6.932;2022-11-15T15:47:49;100629.58;;;13.20;68.37
65659;BME280;60181;53.258;6.932;2022-11-15T15:52:17;100624.24;;;13.20;68.35
65659;BME280;60181;53.258;6.932;2022-11-15T15:56:45;100617.41;;;13.20;68.37
65659;BME280;60181;53.258;6.932;2022-11-15T16:01:13;100611.99;;;13.20;68.38
65659;BME280;60181;53.258;6.932;2022-11-15T16:05:41;100607.47;;;13.19;68.36
65659;BME280;60181;53.258;6.932;2022-11-15T16:10:22;100601.28;;;13.19;68.40
65659;BME280;60181;53.258;6.932;2022-11-15T16:14:37;100594.95;;;13.18;68.40
65659;BME280;60181;53.258;6.932;2022-11-15T16:19:05;100588.75;;;13.18;68.38
65659;BME280;60181;53.258;6.932;2022-11-15T16:23:33;100582.59;;;13.18;68.40
65659;BME280;60181;53.258;6.932;2022-11-15T16:28:01;100576.50;;;13.18;68.39
65659;BME280;60181;53.258;6.932;2022-11-15T16:32:29;100570.58;;;13.18;68.36
65659;BME280;60181;53.258;6.932;2022-11-15T16:36:57;100565.97;;;13.18;68.40
65659;BME280;60181;53.258;6.932;2022-11-15T16:41:25;100561.36;;;13.18;68.39
65659;BME280;60181;53.258;6.932;2022-11-15T16:45:53;100556.61;;;13.17;68.41
65659;BME280;60181;53.258;6.932;2022-11-15T16:50:22;100553.81;;;13.17;68.41
65659;BME280;60181;53.258;6.932;2022-11-15T16:54:49;100551.51;;;13.17;68.37
65659;BME280;60181;53.258;6.932;2022-11-15T16:59:17;100550.03;;;13.17;68.41
65659;BME280;60181;53.258;6.932;2022-11-15T17:03:45;100546.91;;;13.17;68.39
65659;BME280;60181;53.258;6.932;2022-11-15T17:08:13;100543.83;;;13.17;68.37
65659;BME280;60181;53.258;6.932;2022-11-15T17:12:41;100539.39;;;13.17;68.38
65659;BME280;60181;53.258;6.932;2022-11-15T17:17:09;100535.36;;;13.17;68.40
65659;BME280;60181;53.258;6.932;2022-11-15T17:21:37;100529.94;;;13.16;68.43
65659;BME280;60181;53.258;6.932;2022-11-15T17:26:05;100525.75;;;13.17;68.38
65659;BME280;60181;53.258;6.932;2022-11-15T17:30:33;100520.15;;;13.17;68.36
65659;BME280;60181;53.258;6.932;2022-11-15T17:35:02;100514.98;;;13.16;68.39
65659;BME280;60181;53.258;6.932;2022-11-15T17:39:29;100510.78;;;13.16;68.40
65659;BME280;60181;53.258;6.932;2022-11-15T17:43:58;100508.32;;;13.16;68.37
65659;BME280;60181;53.258;6.932;2022-11-15T17:48:25;100506.42;;;13.16;68.37
65659;BME280;60181;53.258;6.932;2022-11-15T17:52:53;100504.21;;;13.16;68.37
65659;BME280;60181;53.258;6.932;2022-11-15T17:57:21;100501.95;;;13.16;68.40
65659;BME280;60181;53.258;6.932;2022-11-15T18:01:49;100499.00;;;13.16;68.37
65659;BME280;60181;53.258;6.932;2022-11-15T18:06:18;100496.37;;;13.16;68.35
65659;BME280;60181;53.258;6.932;2022-11-15T18:10:45;100492.91;;;13.16;68.35
65659;BME280;60181;53.258;6.932;2022-11-15T18:15:13;100489.29;;;13.16;68.37
65659;BME280;60181;53.258;6.932;2022-11-15T18:19:41;100485.92;;;13.16;68.35
65659;BME280;60181;53.258;6.932;2022-11-15T18:24:09;100484.12;;;13.16;68.34
65659;BME280;60181;53.258;6.932;2022-11-15T18:28:44;100482.89;;;13.16;68.34
65659;BME280;60181;53.258;6.932;2022-11-15T18:33:05;100480.91;;;13.16;68.34
65659;BME280;60181;53.258;6.932;2022-11-15T18:37:33;100479.42;;;13.16;68.32
65659;BME280;60181;53.258;6.932;2022-11-15T18:42:01;100475.81;;;13.16;68.32
65659;BME280;60181;53.258;6.932;2022-11-15T18:46:30;100470.37;;;13.16;68.33
65659;BME280;60181;53.258;6.932;2022-11-15T18:51:01;100465.20;;;13.16;68.34
65659;BME280;60181;53.258;6.932;2022-11-15T18:55:25;100460.10;;;13.16;68.35
65659;BME280;60181;53.258;6.932;2022-11-15T18:59:53;100453.86;;;13.16;68.34
65659;BME280;60181;53.258;6.932;2022-11-15T19:04:21;100447.77;;;13.16;68.33
65659;BME280;60181;53.258;6.932;2022-11-15T19:08:50;100442.50;;;13.16;68.35
65659;BME280;60181;53.258;6.932;2022-11-15T19:13:17;100437.08;;;13.15;68.33
65659;BME280;60181;53.258;6.932;2022-11-15T19:17:45;100432.81;;;13.15;68.31
65659;BME280;60181;53.258;6.932;2022-11-15T19:22:13;100429.69;;;13.15;68.31
65659;BME280;60181;53.258;6.932;2022-11-15T19:26:41;100427.06;;;13.15;68.29
65659;BME280;60181;53.258;6.932;2022-11-15T19:31:12;100423.49;;;13.15;68.33
65659;BME280;60181;53.258;6.932;2022-11-15T19:35:37;100420.62;;;13.14;68.33
65659;BME280;60181;53.258;6.932;2022-11-15T19:40:05;100418.31;;;13.14;68.33
65659;BME280;60181;53.258;6.932;2022-11-15T19:44:33;100415.84;;;13.14;68.32
65659;BME280;60181;53.258;6.932;2022-11-15T19:49:01;100411.74;;;13.14;68.32
65659;BME280;60181;53.258;6.932;2022-11-15T19:53:29;100405.98;;;13.14;68.31
65659;BME280;60181;53.258;6.932;2022-11-15T19:57:57;100400.06;;;13.14;68.30
65659;BME280;60181;53.258;6.932;2022-11-15T20:02:25;100394.38;;;13.15;68.30
65659;BME280;60181;53.258;6.932;2022-11-15T20:06:53;100387.89;;;13.14;68.31
65659;BME280;60181;53.258;6.932;2022-11-15T20:11:21;100385.42;;;13.14;68.30
65659;BME280;60181;53.258;6.932;2022-11-15T20:15:49;100384.67;;;13.15;68.32
65659;BME280;60181;53.258;6.932;2022-11-15T20:20:17;100382.37;;;13.15;68.27
65659;BME280;60181;53.258;6.932;2022-11-15T20:24:45;100381.83;;;13.15;68.27
65659;BME280;60181;53.258;6.932;2022-11-15T20:29:13;100381.06;;;13.15;68.30
65659;BME280;60181;53.258;6.932;2022-11-15T20:33:41;100379.74;;;13.15;68.30
65659;BME280;60181;53.258;6.932;2022-11-15T20:38:09;100378.86;;;13.15;68.29
65659;BME280;60181;53.258;6.932;2022-11-15T20:42:37;100378.05;;;13.15;68.34
65659;BME280;60181;53.258;6.932;2022-11-15T20:47:05;100376.62;;;13.15;68.34
65659;BME280;60181;53.258;6.932;2022-11-15T20:51:33;100376.07;;;13.15;68.31
65659;BME280;60181;53.258;6.932;2022-11-15T20:56:02;100374.01;;;13.15;68.29
65659;BME280;60181;53.258;6.932;2022-11-15T21:00:29;100372.28;;;13.16;68.30
65659;BME280;60181;53.258;6.932;2022-11-15T21:04:57;100369.64;;;13.16;68.31
65659;BME280;60181;53.258;6.932;2022-11-15T21:09:25;100365.20;;;13.16;68.29
65659;BME280;60181;53.258;6.932;2022-11-15T21:13:53;100361.75;;;13.16;68.31
65659;BME280;60181;53.258;6.932;2022-11-15T21:18:21;100358.79;;;13.16;68.32
65659;BME280;60181;53.258;6.932;2022-11-15T21:22:49;100356.66;;;13.16;68.30
65659;BME280;60181;53.258;6.932;2022-11-15T21:27:17;100355.41;;;13.16;68.33
65659;BME280;60181;53.258;6.932;2022-11-15T21:31:45;100353.61;;;13.16;68.31
65659;BME280;60181;53.258;6.932;2022-11-15T21:36:13;100353.22;;;13.16;68.32
65659;BME280;60181;53.258;6.932;2022-11-15T21:40:41;100351.58;;;13.16;68.36
65659;BME280;60181;53.258;6.932;2022-11-15T21:45:09;100348.94;;;13.16;68.37
65659;BME280;60181;53.258;6.932;2022-11-15T21:49:37;100345.49;;;13.16;68.36
65659;BME280;60181;53.258;6.932;2022-11-15T21:54:05;100344.09;;;13.16;68.32
65659;BME280;60181;53.258;6.932;2022-11-15T21:58:33;100341.78;;;13.16;68.30
65659;BME280;60181;53.258;6.932;2022-11-15T22:03:01;100338.83;;;13.16;68.38
65659;BME280;60181;53.258;6.932;2022-11-15T22:07:29;100334.38;;;13.16;68.33
65659;BME280;60181;53.258;6.932;2022-11-15T22:11:57;100330.11;;;13.16;68.36
65659;BME280;60181;53.258;6.932;2022-11-15T22:16:25;100326.65;;;13.16;68.39
65659;BME280;60181;53.258;6.932;2022-11-15T22:20:53;100322.96;;;13.16;68.37
65659;BME280;60181;53.258;6.932;2022-11-15T22:25:21;100320.40;;;13.16;68.37
65659;BME280;60181;53.258;6.932;2022-11-15T22:29:49;100318.92;;;13.16;68.38
65659;BME280;60181;53.258;6.932;2022-11-15T22:34:17;100316.46;;;13.16;68.37
65659;BME280;60181;53.258;6.932;2022-11-15T22:38:45;100313.00;;;13.16;68.40
65659;BME280;60181;53.258;6.932;2022-11-15T22:43:13;100310.21;;;13.16;68.39
65659;BME280;60181;53.258;6.932;2022-11-15T22:47:41;100306.84;;;13.16;68.42
65659;BME280;60181;53.258;6.932;2022-11-15T22:52:09;100304.54;;;13.16;68.41
65659;BME280;60181;53.258;6.932;2022-11-15T22:56:37;100302.78;;;13.16;68.43
65659;BME280;60181;53.258;6.932;2022-11-15T23:01:05;100301.47;;;13.16;68.41
65659;BME280;60181;53.258;6.932;2022-11-15T23:05:33;100299.93;;;13.16;68.48
65659;BME280;60181;53.258;6.932;2022-11-15T23:10:01;100297.55;;;13.16;68.46
65659;BME280;60181;53.258;6.932;2022-11-15T23:14:29;100295.08;;;13.16;68.46
65659;BME280;60181;53.258;6.932;2022-11-15T23:18:57;100292.11;;;13.16;68.46
65659;BME280;60181;53.258;6.932;2022-11-15T23:23:25;100288.65;;;13.16;68.49
65659;BME280;60181;53.258;6.932;2022-11-15T23:27:53;100284.55;;;13.16;68.48
65659;BME280;60181;53.258;6.932;2022-11-15T23:32:21;100279.61;;;13.16;68.49
65659;BME280;60181;53.258;6.932;2022-11-15T23:36:49;100276.15;;;13.16;68.46
65659;BME280;60181;53.258;6.932;2022-11-15T23:41:17;100272.88;;;13.16;68.52
65659;BME280;60181;53.258;6.932;2022-11-15T23:45:45;100268.36;;;13.16;68.51
65659;BME280;60181;53.258;6.932;2022-11-15T23:50:13;100263.67;;;13.16;68.49
65659;BME280;60181;53.258;6.932;2022-11-15T23:54:41;100259.63;;;13.17;68.52
65659;BME280;60181;53.258;6.932;2022-11-15T23:59:09;100256.02;;;13.17;68.52
